sensor_id;sensor_type;location;lat;lon;timestamp;P1;P2;P0
46044;PMS7003;31781;54.094;13.428;2023-02-15T00:01:04;17.33;12.67;5.00
46044;PMS7003;31781;54.094;13.428;2023-02-15T00:03:07;18.67;16.33;11.33
46044;PMS7003;31781;54.094;13.428;2023-02-15T00:05:09;16.00;16.00;11.67
46044;PMS7003;31781;54.094;13.428;2023-02-15T00:07:10;22.33;20.00;12.67
46044;PMS7003;31781;54.094;13.428;2023-02-15T00:09:13;23.00;19.00;12.33
46044;PMS7003;31781;54.094;13.428;2023-02-15T00:11:15;20.00;17.00;12.00
46044;PMS7003;31781;54.094;13.428;2023-02-15T00:13:18;17.67;16.33;6.67
46044;PMS7003;31781;54.094;13.428;2023-02-15T00:15:22;20.00;19.00;12.33
46044;PMS7003;31781;54.094;13.428;2023-02-15T00:17:26;25.33;22.67;12.67
46044;PMS7003;31781;54.094;13.428;2023-02-15T00:19:28;17.00;17.00;12.67
46044;PMS7003;31781;54.094;13.428;2023-02-15T00:21:30;23.50;20.25;13.00
46044;PMS7003;31781;54.094;13.428;2023-02-15T00:23:33;19.33;19.33;12.00
46044;PMS7003;31781;54.094;13.428;2023-02-15T00:25:35;22.67;16.33;10.33
46044;PMS7003;31781;54.094;13.428;2023-02-15T00:27:37;17.00;17.00;12.00
46044;PMS7003;31781;54.094;13.428;2023-02-15T00:29:39;18.00;18.00;12.33
46044;PMS7003;31781;54.094;13.428;2023-02-15T00:31:41;26.33;21.33;12.67
46044;PMS7003;31781;54.094;13.428;2023-02-15T00:33:43;15.00;15.00;9.33
46044;PMS7003;31781;54.094;13.428;2023-02-15T00:35:45;19.33;15.33;11.33
46044;PMS7003;31781;54.094;13.428;2023-02-15T00:37:47;23.67;22.33;13.33
46044;PMS7003;31781;54.094;13.428;2023-02-15T00:39:48;25.33;19.67;14.33
46044;PMS7003;31781;54.094;13.428;2023-02-15T00:41:50;21.33;17.67;11.00
46044;PMS7003;31781;54.094;13.428;2023-02-15T00:43:52;16.00;16.00;12.00
46044;PMS7003;31781;54.094;13.428;2023-02-15T00:45:54;16.67;15.00;9.67
46044;PMS7003;31781;54.094;13.428;2023-02-15T00:47:57;12.67;12.67;9.00
46044;PMS7003;31781;54.094;13.428;2023-02-15T00:49:59;16.33;16.33;10.67
46044;PMS7003;31781;54.094;13.428;2023-02-15T00:52:01;19.67;17.67;12.67
46044;PMS7003;31781;54.094;13.428;2023-02-15T00:54:02;17.33;16.33;11.33
46044;PMS7003;31781;54.094;13.428;2023-02-15T00:56:04;14.00;14.00;9.00
46044;PMS7003;31781;54.094;13.428;2023-02-15T00:58:06;16.33;16.33;12.33
46044;PMS7003;31781;54.094;13.428;2023-02-15T01:00:09;20.67;16.00;12.33
46044;PMS7003;31781;54.094;13.428;2023-02-15T01:02:12;18.00;16.00;11.67
46044;PMS7003;31781;54.094;13.428;2023-02-15T01:04:15;18.67;18.00;12.00
46044;PMS7003;31781;54.094;13.428;2023-02-15T01:06:16;16.33;14.33;8.67
46044;PMS7003;31781;54.094;13.428;2023-02-15T01:08:18;17.00;16.67;13.00
46044;PMS7003;31781;54.094;13.428;2023-02-15T01:10:20;18.33;15.67;11.67
46044;PMS7003;31781;54.094;13.428;2023-02-15T01:12:22;16.33;16.33;12.00
46044;PMS7003;31781;54.094;13.428;2023-02-15T01:14:24;19.75;19.00;13.75
46044;PMS7003;31781;54.094;13.428;2023-02-15T01:16:27;16.33;15.33;9.67
46044;PMS7003;31781;54.094;13.428;2023-02-15T01:18:29;17.50;16.50;12.25
46044;PMS7003;31781;54.094;13.428;2023-02-15T01:20:35;16.67;12.67;9.33
46044;PMS7003;31781;54.094;13.428;2023-02-15T01:22:38;13.00;10.67;5.33
46044;PMS7003;31781;54.094;13.428;2023-02-15T01:24:40;13.67;13.67;9.00
46044;PMS7003;31781;54.094;13.428;2023-02-15T01:26:41;23.00;23.00;14.33
46044;PMS7003;31781;54.094;13.428;2023-02-15T01:28:43;18.50;16.50;12.00
46044;PMS7003;31781;54.094;13.428;2023-02-15T01:30:45;18.00;18.00;11.33
46044;PMS7003;31781;54.094;13.428;2023-02-15T01:32:47;23.75;21.25;15.25
46044;PMS7003;31781;54.094;13.428;2023-02-15T01:34:49;21.25;18.75;13.00
46044;PMS7003;31781;54.094;13.428;2023-02-15T01:36:52;16.67;15.33;8.67
46044;PMS7003;31781;54.094;13.428;2023-02-15T01:38:53;22.67;16.00;12.00
46044;PMS7003;31781;54.094;13.428;2023-02-15T01:40:55;16.67;15.67;11.33
46044;PMS7003;31781;54.094;13.428;2023-02-15T01:42:59;16.00;13.50;10.25
46044;PMS7003;31781;54.094;13.428;2023-02-15T01:45:02;23.33;17.00;12.33
46044;PMS7003;31781;54.094;13.428;2023-02-15T01:47:07;16.25;14.50;10.50
46044;PMS7003;31781;54.094;13.428;2023-02-15T01:49:11;22.00;19.75;12.50
46044;PMS7003;31781;54.094;13.428;2023-02-15T01:51:17;17.50;17.50;11.50
46044;PMS7003;31781;54.094;13.428;2023-02-15T01:53:27;13.33;11.67;9.00
46044;PMS7003;31781;54.094;13.428;2023-02-15T01:55:36;19.00;16.25;10.50
46044;PMS7003;31781;54.094;13.428;2023-02-15T01:57:41;23.75;19.50;12.00
46044;PMS7003;31781;54.094;13.428;2023-02-15T01:59:45;22.00;17.67;11.33
46044;PMS7003;31781;54.094;13.428;2023-02-15T02:01:52;20.00;19.25;11.25
46044;PMS7003;31781;54.094;13.428;2023-02-15T02:04:00;25.75;21.75;12.00
46044;PMS7003;31781;54.094;13.428;2023-02-15T02:06:08;21.25;19.50;14.75
46044;PMS7003;31781;54.094;13.428;2023-02-15T02:08:10;25.50;21.00;15.00
46044;PMS7003;31781;54.094;13.428;2023-02-15T02:10:14;24.50;22.75;15.25
46044;PMS7003;31781;54.094;13.428;2023-02-15T02:12:17;21.00;20.00;11.25
46044;PMS7003;31781;54.094;13.428;2023-02-15T02:14:22;17.75;11.25;9.50
46044;PMS7003;31781;54.094;13.428;2023-02-15T02:16:26;18.50;18.50;12.75
46044;PMS7003;31781;54.094;13.428;2023-02-15T02:18:37;24.50;20.50;12.25
46044;PMS7003;31781;54.094;13.428;2023-02-15T02:20:59;20.00;17.75;11.25
46044;PMS7003;31781;54.094;13.428;2023-02-15T02:23:29;19.25;19.25;14.00
46044;PMS7003;31781;54.094;13.428;2023-02-15T02:25:57;25.75;17.50;12.25
46044;PMS7003;31781;54.094;13.428;2023-02-15T02:28:31;23.50;21.75;12.25
46044;PMS7003;31781;54.094;13.428;2023-02-15T02:31:05;20.75;18.75;12.00
46044;PMS7003;31781;54.094;13.428;2023-02-15T02:35:56;22.00;19.75;11.75
46044;PMS7003;31781;54.094;13.428;2023-02-15T02:38:07;29.00;24.25;14.50
46044;PMS7003;31781;54.094;13.428;2023-02-15T02:40:14;26.50;25.50;18.75
46044;PMS7003;31781;54.094;13.428;2023-02-15T02:42:25;17.50;15.75;9.00
46044;PMS7003;31781;54.094;13.428;2023-02-15T02:44:35;38.25;26.00;16.00
46044;PMS7003;31781;54.094;13.428;2023-02-15T02:46:46;21.50;19.00;12.25
46044;PMS7003;31781;54.094;13.428;2023-02-15T02:48:53;20.25;17.25;9.50
46044;PMS7003;31781;54.094;13.428;2023-02-15T02:50:56;27.75;23.75;14.75
46044;PMS7003;31781;54.094;13.428;2023-02-15T02:52:58;18.75;17.25;12.25
46044;PMS7003;31781;54.094;13.428;2023-02-15T02:55:00;15.50;15.50;9.75
46044;PMS7003;31781;54.094;13.428;2023-02-15T02:57:04;27.25;22.75;15.00
46044;PMS7003;31781;54.094;13.428;2023-02-15T02:59:10;25.75;23.50;14.75
46044;PMS7003;31781;54.094;13.428;2023-02-15T03:01:19;26.50;23.50;14.50
46044;PMS7003;31781;54.094;13.428;2023-02-15T03:03:27;24.75;18.50;10.00
46044;PMS7003;31781;54.094;13.428;2023-02-15T03:05:35;28.25;26.00;16.00
46044;PMS7003;31781;54.094;13.428;2023-02-15T03:07:42;22.75;15.75;9.75
46044;PMS7003;31781;54.094;13.428;2023-02-15T03:09:51;22.00;19.75;12.75
46044;PMS7003;31781;54.094;13.428;2023-02-15T03:11:54;20.00;15.50;12.00
46044;PMS7003;31781;54.094;13.428;2023-02-15T03:13:56;32.25;26.00;16.00
46044;PMS7003;31781;54.094;13.428;2023-02-15T03:15:58;24.00;20.25;13.25
46044;PMS7003;31781;54.094;13.428;2023-02-15T03:18:03;32.25;26.25;17.75
46044;PMS7003;31781;54.094;13.428;2023-02-15T03:20:06;24.50;21.50;15.75
46044;PMS7003;31781;54.094;13.428;2023-02-15T03:22:12;23.00;18.00;8.75
46044;PMS7003;31781;54.094;13.428;2023-02-15T03:24:20;23.25;20.75;13.00
46044;PMS7003;31781;54.094;13.428;2023-02-15T03:26:27;30.25;24.00;15.50
46044;PMS7003;31781;54.094;13.428;2023-02-15T03:28:32;20.25;19.00;11.50
46044;PMS7003;31781;54.094;13.428;2023-02-15T03:30:37;25.50;21.75;15.00
46044;PMS7003;31781;54.094;13.428;2023-02-15T03:32:43;31.50;25.25;15.50
46044;PMS7003;31781;54.094;13.428;2023-02-15T03:34:47;23.25;19.00;11.50
46044;PMS7003;31781;54.094;13.428;2023-02-15T03:36:50;34.75;29.00;15.50
46044;PMS7003;31781;54.094;13.428;2023-02-15T03:38:59;33.00;28.00;17.75
46044;PMS7003;31781;54.094;13.428;2023-02-15T03:41:09;24.75;22.75;15.75
46044;PMS7003;31781;54.094;13.428;2023-02-15T03:43:14;30.75;23.00;13.50
46044;PMS7003;31781;54.094;13.428;2023-02-15T03:45:22;24.50;20.75;14.75
46044;PMS7003;31781;54.094;13.428;2023-02-15T03:47:30;18.25;16.25;12.00
46044;PMS7003;31781;54.094;13.428;2023-02-15T03:49:37;22.75;20.25;12.00
46044;PMS7003;31781;54.094;13.428;2023-02-15T03:51:44;28.50;26.50;16.00
46044;PMS7003;31781;54.094;13.428;2023-02-15T03:53:49;28.75;24.00;15.00
46044;PMS7003;31781;54.094;13.428;2023-02-15T03:55:55;30.00;24.50;15.50
46044;PMS7003;31781;54.094;13.428;2023-02-15T03:57:56;32.75;26.50;14.75
46044;PMS7003;31781;54.094;13.428;2023-02-15T03:59:58;26.25;24.00;17.25
46044;PMS7003;31781;54.094;13.428;2023-02-15T04:02:04;27.00;25.00;16.50
46044;PMS7003;31781;54.094;13.428;2023-02-15T04:04:18;28.25;25.50;17.25
46044;PMS7003;31781;54.094;13.428;2023-02-15T04:06:26;24.25;24.25;15.25
46044;PMS7003;31781;54.094;13.428;2023-02-15T04:08:27;22.00;22.00;14.50
46044;PMS7003;31781;54.094;13.428;2023-02-15T04:10:29;19.75;14.50;5.75
46044;PMS7003;31781;54.094;13.428;2023-02-15T04:12:32;29.50;23.50;16.50
46044;PMS7003;31781;54.094;13.428;2023-02-15T04:14:34;20.75;20.75;16.00
46044;PMS7003;31781;54.094;13.428;2023-02-15T04:16:36;27.50;22.25;14.25
46044;PMS7003;31781;54.094;13.428;2023-02-15T04:18:38;26.00;23.00;12.50
46044;PMS7003;31781;54.094;13.428;2023-02-15T04:20:43;26.00;23.50;17.00
46044;PMS7003;31781;54.094;13.428;2023-02-15T04:22:45;18.25;15.25;7.00
46044;PMS7003;31781;54.094;13.428;2023-02-15T04:24:46;21.75;21.50;14.75
46044;PMS7003;31781;54.094;13.428;2023-02-15T04:26:48;21.75;21.75;14.25
46044;PMS7003;31781;54.094;13.428;2023-02-15T04:28:51;33.50;26.50;17.75
46044;PMS7003;31781;54.094;13.428;2023-02-15T04:30:52;33.75;22.75;13.75
46044;PMS7003;31781;54.094;13.428;2023-02-15T04:32:54;24.00;21.75;13.75
46044;PMS7003;31781;54.094;13.428;2023-02-15T04:34:56;28.75;27.75;18.25
46044;PMS7003;31781;54.094;13.428;2023-02-15T04:36:58;25.75;22.75;14.25
46044;PMS7003;31781;54.094;13.428;2023-02-15T04:38:59;23.25;19.00;10.50
46044;PMS7003;31781;54.094;13.428;2023-02-15T04:41:01;25.75;23.50;12.00
46044;PMS7003;31781;54.094;13.428;2023-02-15T04:43:03;21.00;16.50;9.25
46044;PMS7003;31781;54.094;13.428;2023-02-15T04:45:06;29.00;22.75;14.25
46044;PMS7003;31781;54.094;13.428;2023-02-15T04:47:09;22.50;16.50;9.75
46044;PMS7003;31781;54.094;13.428;2023-02-15T04:49:11;26.25;22.75;14.50
46044;PMS7003;31781;54.094;13.428;2023-02-15T04:51:13;18.00;14.00;7.50
46044;PMS7003;31781;54.094;13.428;2023-02-15T04:53:14;27.75;21.50;14.75
46044;PMS7003;31781;54.094;13.428;2023-02-15T04:55:16;22.25;20.00;12.00
46044;PMS7003;31781;54.094;13.428;2023-02-15T04:57:18;25.75;23.50;14.50
46044;PMS7003;31781;54.094;13.428;2023-02-15T04:59:19;25.75;22.00;14.25
46044;PMS7003;31781;54.094;13.428;2023-02-15T05:01:23;23.00;20.50;13.25
46044;PMS7003;31781;54.094;13.428;2023-02-15T05:03:25;22.50;19.25;9.75
46044;PMS7003;31781;54.094;13.428;2023-02-15T05:05:26;26.25;23.50;14.50
46044;PMS7003;31781;54.094;13.428;2023-02-15T05:07:28;27.75;21.75;14.25
46044;PMS7003;31781;54.094;13.428;2023-02-15T05:09:30;24.25;23.50;15.00
46044;PMS7003;31781;54.094;13.428;2023-02-15T05:11:32;25.25;21.50;13.75
46044;PMS7003;31781;54.094;13.428;2023-02-15T05:13:33;23.50;17.00;13.25
46044;PMS7003;31781;54.094;13.428;2023-02-15T05:15:35;23.00;19.75;11.25
46044;PMS7003;31781;54.094;13.428;2023-02-15T05:17:38;21.75;18.50;11.50
46044;PMS7003;31781;54.094;13.428;2023-02-15T05:19:40;28.50;25.50;15.25
46044;PMS7003;31781;54.094;13.428;2023-02-15T05:21:42;27.50;24.25;17.50
46044;PMS7003;31781;54.094;13.428;2023-02-15T05:23:43;23.25;21.50;14.75
46044;PMS7003;31781;54.094;13.428;2023-02-15T05:25:46;20.75;17.75;11.25
46044;PMS7003;31781;54.094;13.428;2023-02-15T05:27:49;20.75;20.50;14.25
46044;PMS7003;31781;54.094;13.428;2023-02-15T05:29:50;22.75;20.50;14.00
46044;PMS7003;31781;54.094;13.428;2023-02-15T05:31:52;20.50;17.25;9.75
46044;PMS7003;31781;54.094;13.428;2023-02-15T05:33:56;17.75;16.75;12.50
46044;PMS7003;31781;54.094;13.428;2023-02-15T05:35:57;18.75;16.50;10.75
46044;PMS7003;31781;54.094;13.428;2023-02-15T05:38:01;23.75;19.75;14.50
46044;PMS7003;31781;54.094;13.428;2023-02-15T05:40:04;18.50;16.00;10.75
46044;PMS7003;31781;54.094;13.428;2023-02-15T05:42:06;21.50;21.50;13.25
46044;PMS7003;31781;54.094;13.428;2023-02-15T05:44:08;24.50;19.50;13.25
46044;PMS7003;31781;54.094;13.428;2023-02-15T05:46:09;25.50;22.50;14.25
46044;PMS7003;31781;54.094;13.428;2023-02-15T05:48:13;24.00;18.75;11.75
46044;PMS7003;31781;54.094;13.428;2023-02-15T05:50:16;23.25;18.75;13.25
46044;PMS7003;31781;54.094;13.428;2023-02-15T05:52:18;23.25;21.50;14.25
46044;PMS7003;31781;54.094;13.428;2023-02-15T05:54:19;18.25;18.25;11.75
46044;PMS7003;31781;54.094;13.428;2023-02-15T05:56:21;21.00;18.25;13.00
46044;PMS7003;31781;54.094;13.428;2023-02-15T05:58:23;31.50;21.50;13.25
46044;PMS7003;31781;54.094;13.428;2023-02-15T06:00:24;24.75;24.75;16.25
46044;PMS7003;31781;54.094;13.428;2023-02-15T06:02:26;31.25;22.50;14.25
46044;PMS7003;31781;54.094;13.428;2023-02-15T06:04:28;15.50;13.50;9.25
46044;PMS7003;31781;54.094;13.428;2023-02-15T06:06:32;24.50;19.25;14.00
46044;PMS7003;31781;54.094;13.428;2023-02-15T06:08:34;31.75;25.75;17.25
46044;PMS7003;31781;54.094;13.428;2023-02-15T06:10:37;22.25;17.75;11.00
46044;PMS7003;31781;54.094;13.428;2023-02-15T06:12:38;14.25;13.00;10.50
46044;PMS7003;31781;54.094;13.428;2023-02-15T06:14:40;21.00;18.25;13.50
46044;PMS7003;31781;54.094;13.428;2023-02-15T06:16:42;22.00;20.50;14.00
46044;PMS7003;31781;54.094;13.428;2023-02-15T06:18:43;23.50;18.00;13.25
46044;PMS7003;31781;54.094;13.428;2023-02-15T06:20:45;24.75;22.50;13.00
46044;PMS7003;31781;54.094;13.428;2023-02-15T06:22:48;19.50;19.50;12.00
46044;PMS7003;31781;54.094;13.428;2023-02-15T06:24:50;16.00;16.00;11.00
46044;PMS7003;31781;54.094;13.428;2023-02-15T06:26:52;13.75;13.75;5.75
46044;PMS7003;31781;54.094;13.428;2023-02-15T06:28:53;19.75;18.50;10.75
46044;PMS7003;31781;54.094;13.428;2023-02-15T06:30:56;19.50;14.50;10.25
46044;PMS7003;31781;54.094;13.428;2023-02-15T06:32:58;12.75;12.75;7.00
46044;PMS7003;31781;54.094;13.428;2023-02-15T06:35:00;20.50;18.00;12.00
46044;PMS7003;31781;54.094;13.428;2023-02-15T06:37:01;17.25;16.25;10.50
46044;PMS7003;31781;54.094;13.428;2023-02-15T06:39:04;18.00;15.25;8.75
46044;PMS7003;31781;54.094;13.428;2023-02-15T06:41:06;12.75;12.75;9.00
46044;PMS7003;31781;54.094;13.428;2023-02-15T06:43:08;17.50;14.50;10.50
46044;PMS7003;31781;54.094;13.428;2023-02-15T06:45:10;13.25;13.25;8.25
46044;PMS7003;31781;54.094;13.428;2023-02-15T06:47:12;17.50;14.50;10.25
46044;PMS7003;31781;54.094;13.428;2023-02-15T06:49:14;16.00;16.00;9.75
46044;PMS7003;31781;54.094;13.428;2023-02-15T06:51:15;14.25;13.25;5.00
46044;PMS7003;31781;54.094;13.428;2023-02-15T06:53:17;19.25;15.25;9.75
46044;PMS7003;31781;54.094;13.428;2023-02-15T06:55:20;17.25;13.75;10.00
46044;PMS7003;31781;54.094;13.428;2023-02-15T06:57:22;15.50;15.50;12.00
46044;PMS7003;31781;54.094;13.428;2023-02-15T06:59:23;17.50;12.25;8.75
46044;PMS7003;31781;54.094;13.428;2023-02-15T07:01:26;14.75;14.75;9.50
46044;PMS7003;31781;54.094;13.428;2023-02-15T07:03:27;16.75;14.00;9.75
46044;PMS7003;31781;54.094;13.428;2023-02-15T07:05:32;13.50;8.75;6.50
46044;PMS7003;31781;54.094;13.428;2023-02-15T07:07:35;16.75;14.75;10.00
46044;PMS7003;31781;54.094;13.428;2023-02-15T07:09:36;17.00;12.25;8.00
46044;PMS7003;31781;54.094;13.428;2023-02-15T07:11:39;19.25;15.75;10.50
46044;PMS7003;31781;54.094;13.428;2023-02-15T07:13:41;18.00;16.75;9.25
46044;PMS7003;31781;54.094;13.428;2023-02-15T07:15:42;19.25;15.00;9.50
46044;PMS7003;31781;54.094;13.428;2023-02-15T07:17:44;11.50;11.25;8.75
46044;PMS7003;31781;54.094;13.428;2023-02-15T07:19:46;19.00;14.75;11.00
46044;PMS7003;31781;54.094;13.428;2023-02-15T07:21:47;18.25;15.75;10.00
46044;PMS7003;31781;54.094;13.428;2023-02-15T07:23:49;16.25;11.75;7.75
46044;PMS7003;31781;54.094;13.428;2023-02-15T07:25:55;15.25;15.00;11.00
46044;PMS7003;31781;54.094;13.428;2023-02-15T07:27:59;21.25;17.00;12.25
46044;PMS7003;31781;54.094;13.428;2023-02-15T07:30:03;19.75;17.50;12.00
46044;PMS7003;31781;54.094;13.428;2023-02-15T07:32:06;15.00;15.00;7.50
46044;PMS7003;31781;54.094;13.428;2023-02-15T07:34:08;25.50;19.50;12.25
46044;PMS7003;31781;54.094;13.428;2023-02-15T07:36:10;17.75;14.75;10.75
46044;PMS7003;31781;54.094;13.428;2023-02-15T07:38:12;20.75;14.00;11.00
46044;PMS7003;31781;54.094;13.428;2023-02-15T07:40:14;20.75;19.00;13.25
46044;PMS7003;31781;54.094;13.428;2023-02-15T07:42:18;21.75;16.75;11.25
46044;PMS7003;31781;54.094;13.428;2023-02-15T07:44:21;20.25;18.25;12.00
46044;PMS7003;31781;54.094;13.428;2023-02-15T07:46:22;20.00;19.25;12.25
46044;PMS7003;31781;54.094;13.428;2023-02-15T07:48:24;21.75;19.00;12.25
46044;PMS7003;31781;54.094;13.428;2023-02-15T07:50:26;22.00;20.25;11.75
46044;PMS7003;31781;54.094;13.428;2023-02-15T07:52:27;25.75;19.75;13.00
46044;PMS7003;31781;54.094;13.428;2023-02-15T07:54:29;22.25;21.75;14.75
46044;PMS7003;31781;54.094;13.428;2023-02-15T07:56:31;21.75;20.00;11.25
46044;PMS7003;31781;54.094;13.428;2023-02-15T07:58:34;22.75;16.75;12.00
46044;PMS7003;31781;54.094;13.428;2023-02-15T08:00:38;30.25;24.00;14.75
46044;PMS7003;31781;54.094;13.428;2023-02-15T08:02:39;30.00;25.00;16.50
46044;PMS7003;31781;54.094;13.428;2023-02-15T08:04:42;26.25;21.50;14.50
46044;PMS7003;31781;54.094;13.428;2023-02-15T08:06:43;20.50;20.50;9.00
46044;PMS7003;31781;54.094;13.428;2023-02-15T08:08:45;29.75;26.25;18.00
46044;PMS7003;31781;54.094;13.428;2023-02-15T08:10:46;25.25;21.25;12.50
46044;PMS7003;31781;54.094;13.428;2023-02-15T08:12:48;23.75;21.00;13.25
46044;PMS7003;31781;54.094;13.428;2023-02-15T08:14:50;27.50;24.75;13.25
46044;PMS7003;31781;54.094;13.428;2023-02-15T08:16:53;34.25;23.50;13.00
46044;PMS7003;31781;54.094;13.428;2023-02-15T08:18:56;22.50;22.00;15.25
46044;PMS7003;31781;54.094;13.428;2023-02-15T08:20:59;31.25;24.00;15.75
46044;PMS7003;31781;54.094;13.428;2023-02-15T08:23:01;34.25;29.00;16.25
46044;PMS7003;31781;54.094;13.428;2023-02-15T08:25:03;31.00;24.25;16.50
46044;PMS7003;31781;54.094;13.428;2023-02-15T08:27:05;18.00;14.50;9.00
46044;PMS7003;31781;54.094;13.428;2023-02-15T08:29:09;25.75;23.00;14.25
46044;PMS7003;31781;54.094;13.428;2023-02-15T08:31:11;28.75;24.75;16.50
46044;PMS7003;31781;54.094;13.428;2023-02-15T08:33:15;27.75;25.50;18.00
46044;PMS7003;31781;54.094;13.428;2023-02-15T08:35:17;32.50;30.00;16.25
46044;PMS7003;31781;54.094;13.428;2023-02-15T08:37:19;25.75;25.50;16.25
46044;PMS7003;31781;54.094;13.428;2023-02-15T08:39:20;20.75;19.50;13.75
46044;PMS7003;31781;54.094;13.428;2023-02-15T08:41:23;6.75;4.75;0.00
46044;PMS7003;31781;54.094;13.428;2023-02-15T08:43:26;26.75;25.25;16.25
46044;PMS7003;31781;54.094;13.428;2023-02-15T08:45:30;26.25;19.75;15.25
46044;PMS7003;31781;54.094;13.428;2023-02-15T08:47:32;29.25;23.25;15.00
46044;PMS7003;31781;54.094;13.428;2023-02-15T08:49:35;33.00;28.50;17.25
46044;PMS7003;31781;54.094;13.428;2023-02-15T08:51:37;27.00;23.25;15.75
46044;PMS7003;31781;54.094;13.428;2023-02-15T08:53:39;23.00;21.00;11.50
46044;PMS7003;31781;54.094;13.428;2023-02-15T08:55:42;26.25;25.25;17.00
46044;PMS7003;31781;54.094;13.428;2023-02-15T08:57:44;27.75;23.75;15.25
46044;PMS7003;31781;54.094;13.428;2023-02-15T08:59:48;24.00;24.00;15.75
46044;PMS7003;31781;54.094;13.428;2023-02-15T09:01:51;28.50;25.00;16.75
46044;PMS7003;31781;54.094;13.428;2023-02-15T09:03:54;27.75;23.00;11.75
46044;PMS7003;31781;54.094;13.428;2023-02-15T09:06:00;37.00;24.00;14.67
46044;PMS7003;31781;54.094;13.428;2023-02-15T09:08:02;31.50;25.00;18.00
46044;PMS7003;31781;54.094;13.428;2023-02-15T09:10:05;29.25;27.00;17.00
46044;PMS7003;31781;54.094;13.428;2023-02-15T09:12:07;34.75;20.50;10.00
46044;PMS7003;31781;54.094;13.428;2023-02-15T09:14:11;31.25;28.75;16.25
46044;PMS7003;31781;54.094;13.428;2023-02-15T09:16:14;18.67;12.67;6.67
46044;PMS7003;31781;54.094;13.428;2023-02-15T09:18:16;36.75;25.25;16.75
46044;PMS7003;31781;54.094;13.428;2023-02-15T09:20:17;33.00;28.00;15.50
46044;PMS7003;31781;54.094;13.428;2023-02-15T09:22:20;36.00;29.25;17.50
46044;PMS7003;31781;54.094;13.428;2023-02-15T09:24:22;25.00;22.50;16.25
46044;PMS7003;31781;54.094;13.428;2023-02-15T09:26:24;26.00;22.00;13.75
46044;PMS7003;31781;54.094;13.428;2023-02-15T09:28:25;31.50;31.50;18.25
46044;PMS7003;31781;54.094;13.428;2023-02-15T09:30:27;31.00;27.50;17.25
46044;PMS7003;31781;54.094;13.428;2023-02-15T09:32:29;27.25;26.50;17.25
46044;PMS7003;31781;54.094;13.428;2023-02-15T09:34:31;32.50;31.00;19.25
46044;PMS7003;31781;54.094;13.428;2023-02-15T09:36:36;44.25;31.50;18.00
46044;PMS7003;31781;54.094;13.428;2023-02-15T09:38:41;34.67;28.00;20.00
46044;PMS7003;31781;54.094;13.428;2023-02-15T09:40:46;20.33;18.33;12.33
46044;PMS7003;31781;54.094;13.428;2023-02-15T09:43:00;28.33;27.00;16.00
46044;PMS7003;31781;54.094;13.428;2023-02-15T09:45:17;35.00;30.67;16.67
46044;PMS7003;31781;54.094;13.428;2023-02-15T09:47:32;27.67;27.67;17.00
46044;PMS7003;31781;54.094;13.428;2023-02-15T09:49:57;32.67;29.33;17.00
46044;PMS7003;31781;54.094;13.428;2023-02-15T09:52:14;22.25;22.25;18.00
46044;PMS7003;31781;54.094;13.428;2023-02-15T09:54:35;27.67;24.00;16.33
46044;PMS7003;31781;54.094;13.428;2023-02-15T09:56:51;19.33;18.00;10.67
46044;PMS7003;31781;54.094;13.428;2023-02-15T09:58:57;32.33;28.33;17.67
46044;PMS7003;31781;54.094;13.428;2023-02-15T10:01:12;27.67;24.00;17.00
46044;PMS7003;31781;54.094;13.428;2023-02-15T10:03:23;35.33;30.67;20.33
46044;PMS7003;31781;54.094;13.428;2023-02-15T10:05:38;33.33;30.33;20.33
46044;PMS7003;31781;54.094;13.428;2023-02-15T10:07:58;35.67;29.00;20.00
46044;PMS7003;31781;54.094;13.428;2023-02-15T10:10:18;34.33;29.00;16.00
46044;PMS7003;31781;54.094;13.428;2023-02-15T10:12:32;32.33;29.33;18.00
46044;PMS7003;31781;54.094;13.428;2023-02-15T10:14:46;28.67;22.67;15.67
46044;PMS7003;31781;54.094;13.428;2023-02-15T10:17:02;41.67;32.00;20.67
46044;PMS7003;31781;54.094;13.428;2023-02-15T10:19:15;32.67;32.00;20.33
46044;PMS7003;31781;54.094;13.428;2023-02-15T10:21:30;35.00;29.00;18.67
46044;PMS7003;31781;54.094;13.428;2023-02-15T10:23:51;40.33;29.33;17.67
46044;PMS7003;31781;54.094;13.428;2023-02-15T10:26:11;36.67;32.33;20.00
46044;PMS7003;31781;54.094;13.428;2023-02-15T10:28:18;37.67;35.67;19.67
46044;PMS7003;31781;54.094;13.428;2023-02-15T10:30:23;35.00;31.33;17.67
46044;PMS7003;31781;54.094;13.428;2023-02-15T10:32:35;38.33;32.00;21.33
46044;PMS7003;31781;54.094;13.428;2023-02-15T10:34:45;20.00;18.33;15.33
46044;PMS7003;31781;54.094;13.428;2023-02-15T10:36:56;32.33;32.00;17.67
46044;PMS7003;31781;54.094;13.428;2023-02-15T10:39:12;32.33;29.67;17.00
46044;PMS7003;31781;54.094;13.428;2023-02-15T10:41:29;36.67;35.00;21.00
46044;PMS7003;31781;54.094;13.428;2023-02-15T10:46:06;43.33;33.33;21.00
46044;PMS7003;31781;54.094;13.428;2023-02-15T10:48:24;45.67;39.33;22.33
46044;PMS7003;31781;54.094;13.428;2023-02-15T10:50:47;44.00;38.00;21.33
46044;PMS7003;31781;54.094;13.428;2023-02-15T10:52:54;34.67;34.67;21.00
46044;PMS7003;31781;54.094;13.428;2023-02-15T10:55:17;39.33;38.67;24.00
46044;PMS7003;31781;54.094;13.428;2023-02-15T10:57:27;37.00;33.00;21.67
46044;PMS7003;31781;54.094;13.428;2023-02-15T10:59:45;31.67;26.00;14.33
46044;PMS7003;31781;54.094;13.428;2023-02-15T11:01:59;33.33;27.00;12.67
46044;PMS7003;31781;54.094;13.428;2023-02-15T11:04:12;42.00;34.00;22.00
46044;PMS7003;31781;54.094;13.428;2023-02-15T11:06:33;34.67;31.00;19.67
46044;PMS7003;31781;54.094;13.428;2023-02-15T11:08:39;46.00;36.00;21.33
46044;PMS7003;31781;54.094;13.428;2023-02-15T11:10:47;44.33;39.00;23.00
46044;PMS7003;31781;54.094;13.428;2023-02-15T11:12:54;36.33;31.00;22.67
46044;PMS7003;31781;54.094;13.428;2023-02-15T11:14:58;48.33;42.00;26.00
46044;PMS7003;31781;54.094;13.428;2023-02-15T11:17:05;45.00;37.33;22.33
46044;PMS7003;31781;54.094;13.428;2023-02-15T11:19:12;46.33;38.67;23.33
46044;PMS7003;31781;54.094;13.428;2023-02-15T11:21:20;47.67;38.33;25.33
46044;PMS7003;31781;54.094;13.428;2023-02-15T11:23:24;35.67;31.67;21.33
46044;PMS7003;31781;54.094;13.428;2023-02-15T11:25:28;42.67;38.33;22.33
46044;PMS7003;31781;54.094;13.428;2023-02-15T11:27:33;39.33;35.67;20.33
46044;PMS7003;31781;54.094;13.428;2023-02-15T11:29:37;42.00;38.33;24.67
46044;PMS7003;31781;54.094;13.428;2023-02-15T11:31:43;41.67;35.33;25.00
46044;PMS7003;31781;54.094;13.428;2023-02-15T11:33:47;39.00;36.67;23.33
46044;PMS7003;31781;54.094;13.428;2023-02-15T11:35:53;46.33;40.00;24.33
46044;PMS7003;31781;54.094;13.428;2023-02-15T11:38:01;40.00;35.67;23.67